Terminal Aerodrome Forecast
Issued by NWS

Home | Current Version | Previous Version | Graphics & Text | Print | Product List | Glossary On
Versions: 1 2 3 4 5 6 7 8 9 10 11 12 13
000
FTUS45 KRIW 031720
TAFBPI
TAF
KBPI 031720Z 0318/0418 19006KT P6SM FEW080 BKN170
     FM031900 22013G20KT P6SM FEW080 BKN170
     FM040130 20007KT P6SM SCT250
     FM040600 VRB05KT P6SM SCT250 WS010/23035KT
     FM041100 VRB04KT P6SM SCT250
     FM041700 20011KT P6SM SCT250=

USA.gov is the U.S. government's official web portal to all federal, state and local government web resources and services.